Time;durP1;ratioP1;P1;durP2;ratioP2;P2;SDS_P1;SDS_P2;PMS_P1;PMS_P2;Temp;Humidity;BMP_temperature;BMP_pressure;BME280_temperature;BME280_humidity;BME280_pressure;Samples;Min_cycle;Max_cycle;Signal;HPM_P1;HPM_P2
2023/01/12 00:02:13;;;;;;;0.20;0.20;;;6.70;99.90;;;;;;5044905;28;20512;-80
2023/01/12 00:04:38;;;;;;;0.30;0.30;;;6.70;99.90;;;;;;5048077;28;20241;-80
2023/01/12 00:07:09;;;;;;;0.20;0.20;;;6.70;99.90;;;;;;5039087;28;20437;-79
2023/01/12 00:09:35;;;;;;;0.23;0.23;;;6.60;99.90;;;;;;5029505;28;20768;-80
2023/01/12 00:12:05;;;;;;;0.30;0.30;;;6.70;99.90;;;;;;5043492;28;20471;-80
2023/01/12 00:14:35;;;;;;;0.20;0.20;;;6.60;99.90;;;;;;5044589;28;20527;-80
2023/01/12 00:17:00;;;;;;;0.30;0.30;;;6.60;99.90;;;;;;5037043;28;20477;-79
2023/01/12 00:19:26;;;;;;;0.30;0.30;;;6.60;99.90;;;;;;5044663;28;20870;-80
2023/01/12 00:24:36;;;;;;;0.30;0.30;;;6.50;99.90;;;;;;5043091;28;20210;-79
2023/01/12 00:27:07;;;;;;;0.30;0.30;;;6.50;99.90;;;;;;5039628;28;20531;-80
2023/01/12 00:29:33;;;;;;;0.30;0.30;;;6.50;99.90;;;;;;5045940;28;20943;-80
2023/01/12 00:31:59;;;;;;;0.20;0.20;;;6.40;99.90;;;;;;5044153;28;20935;-79
2023/01/12 00:34:25;;;;;;;0.30;0.30;;;6.40;99.90;;;;;;5029202;28;20866;-79
2023/01/12 00:36:51;;;;;;;0.30;0.30;;;6.10;99.90;;;;;;5042309;28;20448;-79
2023/01/12 00:39:17;;;;;;;0.30;0.30;;;5.30;99.90;;;;;;5024213;28;20446;-79
2023/01/12 00:47:12;;;;;;;0.30;0.30;;;4.50;99.90;;;;;;5045730;28;20532;-79
2023/01/12 00:49:39;;;;;;;0.30;0.30;;;4.60;99.90;;;;;;5044027;28;21306;-78
2023/01/12 00:52:06;;;;;;;0.30;0.30;;;4.70;99.90;;;;;;5028497;28;20453;-79
2023/01/12 00:54:32;;;;;;;0.37;0.37;;;4.80;99.90;;;;;;5029409;28;20526;-78
2023/01/12 00:56:58;;;;;;;0.20;0.20;;;4.80;99.90;;;;;;5029956;28;20540;-79
2023/01/12 00:59:23;;;;;;;0.30;0.30;;;4.80;99.90;;;;;;5043337;28;20537;-79
2023/01/12 01:01:49;;;;;;;0.30;0.30;;;4.80;99.90;;;;;;5039179;28;20256;-79
2023/01/12 01:04:14;;;;;;;0.30;0.30;;;4.90;99.90;;;;;;5047850;28;20191;-79
2023/01/12 01:06:40;;;;;;;0.30;0.30;;;4.80;99.90;;;;;;5043396;28;20198;-79
2023/01/12 01:09:06;;;;;;;0.23;0.23;;;4.90;99.90;;;;;;5050146;28;20184;-79
2023/01/12 01:11:32;;;;;;;0.20;0.20;;;4.90;99.90;;;;;;5048921;28;20696;-79
2023/01/12 01:13:58;;;;;;;0.20;0.20;;;4.90;99.90;;;;;;5033596;28;20481;-80
2023/01/12 01:16:24;;;;;;;0.30;0.30;;;5.00;99.90;;;;;;5044513;28;20818;-79
2023/01/12 01:18:49;;;;;;;0.20;0.20;;;5.10;99.90;;;;;;5050480;28;20594;-80
2023/01/12 01:21:15;;;;;;;0.30;0.30;;;5.10;99.90;;;;;;5032971;28;20438;-80
2023/01/12 01:23:41;;;;;;;0.30;0.30;;;5.10;99.90;;;;;;5039776;28;20213;-79
2023/01/12 01:26:10;;;;;;;0.30;0.30;;;5.10;99.90;;;;;;5049297;28;20197;-80
2023/01/12 01:28:35;;;;;;;0.30;0.30;;;5.10;99.90;;;;;;5049042;28;20448;-79
2023/01/12 01:31:10;;;;;;;0.30;0.30;;;5.10;99.90;;;;;;5047833;28;20453;-79
2023/01/12 01:33:36;;;;;;;0.30;0.30;;;5.10;99.90;;;;;;5049349;28;20218;-80
2023/01/12 01:36:02;;;;;;;0.30;0.30;;;5.10;99.90;;;;;;5037433;28;20613;-80
2023/01/12 01:38:28;;;;;;;0.30;0.30;;;5.20;99.90;;;;;;5043365;28;21133;-79
2023/01/12 01:40:53;;;;;;;0.30;0.30;;;5.30;99.90;;;;;;5052421;28;20478;-79
2023/01/12 01:43:21;;;;;;;0.30;0.30;;;5.40;99.90;;;;;;5052266;28;20445;-80
2023/01/12 01:46:21;;;;;;;0.30;0.30;;;5.40;99.90;;;;;;5047105;28;20301;-80
2023/01/12 01:48:47;;;;;;;0.20;0.20;;;5.50;99.90;;;;;;5034845;28;20445;-80
2023/01/12 01:51:15;;;;;;;0.23;0.23;;;5.50;99.90;;;;;;5044150;28;20452;-79
2023/01/12 01:53:44;;;;;;;0.27;0.27;;;5.50;99.90;;;;;;5052035;28;20218;-80
2023/01/12 01:56:13;;;;;;;0.20;0.20;;;5.60;99.90;;;;;;5046370;28;20453;-79
2023/01/12 01:58:50;;;;;;;0.30;0.30;;;5.60;99.90;;;;;;5047336;28;20528;-79
2023/01/12 02:01:15;;;;;;;0.20;0.20;;;5.60;99.90;;;;;;5050167;28;20501;-80
2023/01/12 02:03:41;;;;;;;0.30;0.30;;;5.70;99.90;;;;;;5050142;28;20445;-79
2023/01/12 02:06:07;;;;;;;0.30;0.30;;;5.70;99.90;;;;;;5047962;28;20737;-79
2023/01/12 02:08:44;;;;;;;0.30;0.30;;;5.80;99.90;;;;;;5049996;28;20195;-79
2023/01/12 02:17:09;;;;;;;0.30;0.30;;;5.90;99.90;;;;;;5038920;28;20497;-80
2023/01/12 02:20:32;;;;;;;0.20;0.20;;;5.90;99.90;;;;;;5045310;28;20976;-80
2023/01/12 02:23:21;;;;;;;0.30;0.30;;;5.90;99.90;;;;;;4956908;28;20637;-80
2023/01/12 02:26:22;;;;;;;0.20;0.20;;;6.00;99.90;;;;;;4967773;28;20465;-80
2023/01/12 02:29:25;;;;;;;0.30;0.30;;;6.10;99.90;;;;;;5029565;28;20447;-80
2023/01/12 02:32:12;;;;;;;0.30;0.30;;;6.20;99.90;;;;;;5031341;28;20507;-80
2023/01/12 02:35:20;;;;;;;0.30;0.30;;;6.20;99.90;;;;;;5041616;28;20488;-80
2023/01/12 02:38:02;;;;;;;0.30;0.30;;;6.20;99.90;;;;;;5040021;28;20514;-80
2023/01/12 02:40:38;;;;;;;0.30;0.30;;;6.20;99.90;;;;;;5044617;28;20486;-80
2023/01/12 02:43:21;;;;;;;0.30;0.30;;;6.20;99.90;;;;;;5037903;28;20461;-79
2023/01/12 02:46:21;;;;;;;0.20;0.20;;;6.20;99.90;;;;;;5049492;28;20795;-80
2023/01/12 02:48:55;;;;;;;0.30;0.30;;;6.10;99.90;;;;;;5044171;28;20441;-80
2023/01/12 02:51:30;;;;;;;0.30;0.30;;;6.00;99.90;;;;;;5044170;28;20524;-79
2023/01/12 02:54:17;;;;;;;0.30;0.30;;;6.10;99.90;;;;;;5045292;28;21021;-79
2023/01/12 02:56:54;;;;;;;0.30;0.30;;;6.10;99.90;;;;;;5048824;28;22273;-79
2023/01/12 02:59:21;;;;;;;0.20;0.20;;;6.10;99.90;;;;;;5047745;28;20484;-79
2023/01/12 03:01:50;;;;;;;0.30;0.30;;;6.10;99.90;;;;;;5047504;28;20523;-79
2023/01/12 03:04:18;;;;;;;0.30;0.30;;;6.20;99.90;;;;;;5046946;28;20506;-79
2023/01/12 03:06:54;;;;;;;0.20;0.20;;;6.10;99.90;;;;;;5046755;28;20475;-79
2023/01/12 03:09:21;;;;;;;0.30;0.30;;;6.20;99.90;;;;;;5048811;28;20510;-79
2023/01/12 03:11:52;;;;;;;0.20;0.20;;;6.20;99.90;;;;;;5050035;28;20445;-80
2023/01/12 03:14:20;;;;;;;0.30;0.30;;;6.20;99.90;;;;;;5046491;28;20564;-80
2023/01/12 03:16:46;;;;;;;0.20;0.20;;;6.20;99.90;;;;;;5047690;28;20437;-79
2023/01/12 03:19:20;;;;;;;0.30;0.30;;;6.20;99.90;;;;;;5047708;28;20444;-80
2023/01/12 03:21:54;;;;;;;0.30;0.30;;;6.20;99.90;;;;;;5047499;28;20453;-80
2023/01/12 03:24:31;;;;;;;0.30;0.30;;;6.20;99.90;;;;;;5047196;28;20838;-79
2023/01/12 03:27:11;;;;;;;0.23;0.23;;;6.20;99.90;;;;;;5030501;28;20463;-79
2023/01/12 03:29:43;;;;;;;0.30;0.30;;;6.20;99.90;;;;;;5017978;28;20456;-79
2023/01/12 03:32:09;;;;;;;0.20;0.20;;;6.20;99.90;;;;;;5029020;28;20445;-79
2023/01/12 03:34:35;;;;;;;0.30;0.30;;;6.20;99.90;;;;;;5026902;28;20844;-79
2023/01/12 03:37:15;;;;;;;0.20;0.20;;;6.20;99.90;;;;;;5045199;28;20182;-80
2023/01/12 03:40:11;;;;;;;0.30;0.30;;;6.20;99.90;;;;;;5048009;28;20440;-79
2023/01/12 03:42:45;;;;;;;0.30;0.30;;;6.10;99.90;;;;;;5045735;28;20469;-80
2023/01/12 03:45:27;;;;;;;0.30;0.30;;;6.10;99.90;;;;;;5042649;28;20904;-80
2023/01/12 03:48:12;;;;;;;0.30;0.30;;;6.00;99.90;;;;;;5046415;28;21146;-80
2023/01/12 03:50:46;;;;;;;0.30;0.30;;;6.00;99.90;;;;;;5044212;28;20531;-79
2023/01/12 03:53:15;;;;;;;0.20;0.20;;;6.10;99.90;;;;;;5029009;28;20456;-79
2023/01/12 03:55:42;;;;;;;0.20;0.20;;;6.10;99.90;;;;;;5047408;28;20568;-80
2023/01/12 03:58:08;;;;;;;0.30;0.30;;;6.00;99.90;;;;;;5041801;28;20448;-79
2023/01/12 04:00:34;;;;;;;0.30;0.30;;;6.00;99.90;;;;;;5043793;28;20533;-79
2023/01/12 04:03:16;;;;;;;0.30;0.30;;;5.90;99.90;;;;;;5028429;28;20494;-79
2023/01/12 04:05:43;;;;;;;0.20;0.20;;;6.00;99.90;;;;;;5047201;28;20271;-80
2023/01/12 04:08:10;;;;;;;0.27;0.27;;;5.90;99.90;;;;;;5047858;28;20444;-80
2023/01/12 04:10:35;;;;;;;0.30;0.30;;;5.90;99.90;;;;;;5027843;28;20507;-80
2023/01/12 04:13:01;;;;;;;0.30;0.30;;;5.90;99.90;;;;;;5044057;28;20444;-79
2023/01/12 04:15:26;;;;;;;0.30;0.30;;;5.90;99.90;;;;;;5047665;28;20606;-80
2023/01/12 04:17:52;;;;;;;0.30;0.30;;;5.90;99.90;;;;;;5046891;28;20273;-79
2023/01/12 04:20:18;;;;;;;0.20;0.20;;;5.90;99.90;;;;;;5018894;28;20187;-80
2023/01/12 04:22:44;;;;;;;0.27;0.27;;;5.90;99.90;;;;;;5049111;28;20190;-80
2023/01/12 04:25:12;;;;;;;0.30;0.30;;;5.90;99.90;;;;;;5042939;28;20468;-79
2023/01/12 04:27:47;;;;;;;0.20;0.20;;;6.00;99.90;;;;;;5044655;28;20480;-80
2023/01/12 04:30:14;;;;;;;0.27;0.27;;;6.10;99.90;;;;;;5044977;28;20444;-80
2023/01/12 04:32:41;;;;;;;0.30;0.30;;;6.10;99.90;;;;;;5039054;28;20473;-80
2023/01/12 04:35:07;;;;;;;0.20;0.20;;;6.00;99.90;;;;;;5044235;28;20538;-80
2023/01/12 04:37:33;;;;;;;0.30;0.30;;;6.00;99.90;;;;;;5046881;28;20449;-79
2023/01/12 04:39:59;;;;;;;0.30;0.30;;;6.00;99.90;;;;;;5052229;28;20551;-79
2023/01/12 04:45:09;;;;;;;0.30;0.30;;;5.90;99.90;;;;;;5053297;28;20517;-79
2023/01/12 04:47:35;;;;;;;0.30;0.30;;;6.00;99.90;;;;;;5047222;28;20437;-80
2023/01/12 04:50:00;;;;;;;0.30;0.30;;;6.00;99.90;;;;;;5038647;28;20188;-79
2023/01/12 04:52:26;;;;;;;0.30;0.30;;;6.00;99.90;;;;;;5053959;28;20256;-79
2023/01/12 04:54:51;;;;;;;0.30;0.30;;;6.00;99.90;;;;;;5053912;28;20233;-80
2023/01/12 04:57:17;;;;;;;0.30;0.30;;;6.00;99.90;;;;;;5051789;28;20178;-78
2023/01/12 04:59:42;;;;;;;0.30;0.30;;;6.00;99.90;;;;;;5053505;28;20190;-80
2023/01/12 05:02:08;;;;;;;0.30;0.30;;;6.00;99.90;;;;;;5052387;28;20198;-80
2023/01/12 05:04:33;;;;;;;0.30;0.30;;;6.10;99.90;;;;;;5035204;28;20922;-78
2023/01/12 05:06:59;;;;;;;0.30;0.30;;;6.00;99.90;;;;;;5055730;28;20339;-79
2023/01/12 05:12:08;;;;;;;0.30;0.30;;;6.10;99.90;;;;;;5052180;28;20236;-80
2023/01/12 05:14:34;;;;;;;0.30;0.30;;;6.00;99.90;;;;;;5053796;28;20958;-79
2023/01/12 05:17:00;;;;;;;0.30;0.30;;;6.00;99.90;;;;;;5048597;28;20200;-79
2023/01/12 05:19:26;;;;;;;0.30;0.30;;;6.10;99.90;;;;;;5052219;28;20443;-79
2023/01/12 05:21:51;;;;;;;0.30;0.30;;;6.00;99.90;;;;;;5035666;28;20536;-79
2023/01/12 05:24:17;;;;;;;0.30;0.30;;;6.00;99.90;;;;;;5052224;28;20187;-80
2023/01/12 05:26:42;;;;;;;0.30;0.30;;;6.00;99.90;;;;;;5053138;28;21061;-79
2023/01/12 05:29:11;;;;;;;0.30;0.30;;;6.10;99.90;;;;;;5052921;28;20627;-79
2023/01/12 05:31:36;;;;;;;0.30;0.30;;;6.10;99.90;;;;;;5028443;28;20198;-79
2023/01/12 05:34:02;;;;;;;0.30;0.30;;;6.10;99.90;;;;;;5051922;28;20481;-79
2023/01/12 05:36:27;;;;;;;0.30;0.30;;;6.20;99.90;;;;;;5035727;28;20186;-79
2023/01/12 05:38:53;;;;;;;0.23;0.23;;;6.20;99.90;;;;;;5054598;28;20277;-80
2023/01/12 05:41:20;;;;;;;0.23;0.23;;;6.20;99.90;;;;;;5029162;28;20175;-79
2023/01/12 05:43:51;;;;;;;0.30;0.30;;;6.20;99.90;;;;;;5044996;28;20178;-79
2023/01/12 05:46:22;;;;;;;0.30;0.30;;;6.20;99.90;;;;;;5043076;28;20433;-79
2023/01/12 05:48:49;;;;;;;0.20;0.20;;;6.20;99.90;;;;;;5053482;28;20535;-79
2023/01/12 05:51:15;;;;;;;0.20;0.20;;;6.30;99.90;;;;;;5048138;28;20432;-79
2023/01/12 05:53:43;;;;;;;0.30;0.30;;;6.30;99.90;;;;;;5047693;28;20957;-79
2023/01/12 05:56:14;;;;;;;0.27;0.27;;;6.30;99.90;;;;;;5049085;28;20191;-79
2023/01/12 05:58:40;;;;;;;0.30;0.30;;;6.40;99.90;;;;;;5051878;28;20425;-80
2023/01/12 06:01:07;;;;;;;0.30;0.30;;;6.40;99.90;;;;;;5043808;28;20453;-79
2023/01/12 06:03:33;;;;;;;0.30;0.30;;;6.40;99.90;;;;;;5044858;28;20305;-79
2023/01/12 06:05:58;;;;;;;0.20;0.20;;;6.40;99.90;;;;;;5045327;28;21042;-79
2023/01/12 06:08:24;;;;;;;0.30;0.30;;;6.40;99.90;;;;;;5046007;28;20760;-78
2023/01/12 06:10:50;;;;;;;0.20;0.20;;;6.40;99.90;;;;;;5047607;28;20273;-78
2023/01/12 06:16:07;;;;;;;0.30;0.30;;;6.40;99.90;;;;;;5041776;28;20484;-78
2023/01/12 06:18:37;;;;;;;0.20;0.20;;;6.40;99.90;;;;;;5047874;28;20471;-78
2023/01/12 06:21:04;;;;;;;0.30;0.30;;;6.40;99.90;;;;;;5047719;28;20537;-79
2023/01/12 06:23:30;;;;;;;0.30;0.30;;;6.40;99.90;;;;;;5031459;28;20460;-79
2023/01/12 06:25:59;;;;;;;0.30;0.30;;;6.30;99.90;;;;;;5046267;28;20457;-79
2023/01/12 06:28:24;;;;;;;0.30;0.30;;;6.30;99.90;;;;;;5048357;28;20198;-80
2023/01/12 06:31:05;;;;;;;0.30;0.30;;;6.30;99.90;;;;;;5040052;28;20453;-79
2023/01/12 06:33:31;;;;;;;0.30;0.30;;;6.30;99.90;;;;;;5046263;28;20214;-79
2023/01/12 06:35:57;;;;;;;0.27;0.27;;;6.30;99.90;;;;;;5047705;28;20449;-79
2023/01/12 06:38:25;;;;;;;0.20;0.20;;;6.30;99.90;;;;;;5047825;28;20195;-79
2023/01/12 06:40:50;;;;;;;0.30;0.30;;;6.30;99.90;;;;;;5050566;28;20194;-79
2023/01/12 06:43:16;;;;;;;0.30;0.30;;;6.30;99.90;;;;;;5050136;28;20456;-79
2023/01/12 06:45:42;;;;;;;0.30;0.30;;;6.30;99.90;;;;;;5045509;28;20183;-79
2023/01/12 06:48:08;;;;;;;0.20;0.20;;;6.30;99.90;;;;;;5029361;28;20213;-79
2023/01/12 06:50:34;;;;;;;0.30;0.30;;;6.20;99.90;;;;;;5044157;28;20197;-79
2023/01/12 06:53:02;;;;;;;0.20;0.20;;;6.30;99.90;;;;;;5044116;28;20274;-79
2023/01/12 06:55:28;;;;;;;0.20;0.20;;;6.30;99.90;;;;;;5041746;28;20511;-79
2023/01/12 06:57:53;;;;;;;0.20;0.20;;;6.30;99.90;;;;;;5048233;28;20440;-79
2023/01/12 07:00:19;;;;;;;0.20;0.20;;;6.30;99.90;;;;;;5044662;28;20195;-78
2023/01/12 07:02:49;;;;;;;0.20;0.20;;;6.30;99.90;;;;;;5042293;28;20193;-78
2023/01/12 07:05:15;;;;;;;0.20;0.20;;;6.30;99.90;;;;;;5038761;28;21039;-78
2023/01/12 07:07:40;;;;;;;0.20;0.20;;;6.30;99.90;;;;;;5045121;28;20524;-78
2023/01/12 07:10:06;;;;;;;0.30;0.30;;;6.40;99.90;;;;;;5037701;28;20301;-78
2023/01/12 07:12:32;;;;;;;0.23;0.23;;;6.40;99.90;;;;;;5031562;28;20544;-78
2023/01/12 07:14:58;;;;;;;0.20;0.20;;;6.40;99.90;;;;;;5043551;28;20492;-78
2023/01/12 07:17:24;;;;;;;0.30;0.30;;;6.40;99.90;;;;;;5026637;28;20666;-77
2023/01/12 07:19:49;;;;;;;0.20;0.20;;;6.40;99.90;;;;;;5047505;28;20467;-77
2023/01/12 07:22:15;;;;;;;0.30;0.30;;;6.40;99.90;;;;;;5034840;28;20188;-78
2023/01/12 07:24:40;;;;;;;0.30;0.30;;;6.40;99.90;;;;;;5044629;28;20638;-77
2023/01/12 07:27:06;;;;;;;0.20;0.20;;;6.40;99.90;;;;;;5029095;28;21757;-80
2023/01/12 07:29:32;;;;;;;0.20;0.20;;;6.40;99.90;;;;;;5043666;28;20174;-79
2023/01/12 07:31:57;;;;;;;0.20;0.20;;;6.50;99.90;;;;;;5036834;28;20278;-82
2023/01/12 07:34:23;;;;;;;0.30;0.30;;;6.50;99.90;;;;;;5036205;28;20226;-81
2023/01/12 07:36:49;;;;;;;0.23;0.23;;;6.60;99.90;;;;;;5048138;28;20226;-82
2023/01/12 07:39:15;;;;;;;0.20;0.20;;;6.70;99.90;;;;;;5049360;28;20772;-81
2023/01/12 07:44:25;;;;;;;0.30;0.30;;;6.60;99.90;;;;;;5037442;28;20452;-80
2023/01/12 07:46:50;;;;;;;0.20;0.20;;;6.70;99.90;;;;;;5033088;28;20429;-81
2023/01/12 07:49:16;;;;;;;0.30;0.30;;;6.60;99.90;;;;;;5049098;28;20688;-81
2023/01/12 07:51:41;;;;;;;0.20;0.20;;;6.60;99.90;;;;;;5037984;28;20232;-82
2023/01/12 07:54:07;;;;;;;0.30;0.30;;;6.70;99.90;;;;;;5039976;28;20227;-81
2023/01/12 07:56:33;;;;;;;0.30;0.30;;;6.60;99.90;;;;;;5036891;28;20269;-82
2023/01/12 07:58:58;;;;;;;0.20;0.20;;;6.60;99.90;;;;;;5044723;28;20194;-81
2023/01/12 08:01:24;;;;;;;0.30;0.30;;;6.70;99.90;;;;;;5041736;28;20187;-79
2023/01/12 08:03:49;;;;;;;0.30;0.30;;;6.70;99.90;;;;;;5045748;28;20182;-79
2023/01/12 08:06:15;;;;;;;0.20;0.20;;;6.70;99.90;;;;;;5046835;28;20238;-79
2023/01/12 08:08:40;;;;;;;0.30;0.30;;;6.70;99.90;;;;;;5049313;28;20266;-78
2023/01/12 08:11:08;;;;;;;0.30;0.30;;;6.70;99.90;;;;;;5044705;28;20704;-78
2023/01/12 08:13:34;;;;;;;0.30;0.30;;;6.70;99.90;;;;;;5043703;28;20199;-78
2023/01/12 08:16:05;;;;;;;0.20;0.20;;;6.70;99.90;;;;;;5038326;28;20464;-78
2023/01/12 08:18:37;;;;;;;0.20;0.20;;;6.70;99.90;;;;;;5029358;28;20438;-78
2023/01/12 08:21:08;;;;;;;0.30;0.30;;;6.80;99.90;;;;;;5044850;28;20521;-79
2023/01/12 08:23:41;;;;;;;0.27;0.27;;;6.80;99.90;;;;;;5044516;28;20433;-78
2023/01/12 08:26:17;;;;;;;0.30;0.30;;;6.80;99.90;;;;;;5038320;28;20445;-79
2023/01/12 08:28:47;;;;;;;0.30;0.30;;;6.80;99.90;;;;;;5040828;28;20436;-79
2023/01/12 08:31:15;;;;;;;0.30;0.30;;;6.90;99.90;;;;;;5043756;28;20452;-78
2023/01/12 08:33:42;;;;;;;0.27;0.27;;;6.90;99.90;;;;;;5042469;28;20515;-79
2023/01/12 08:36:11;;;;;;;0.30;0.30;;;6.90;99.90;;;;;;5029542;28;20457;-78
2023/01/12 08:38:38;;;;;;;0.20;0.20;;;6.90;99.90;;;;;;5044183;28;20445;-79
2023/01/12 08:44:07;;;;;;;0.20;0.20;;;6.90;99.90;;;;;;5043581;28;20468;-80
2023/01/12 08:46:35;;;;;;;0.30;0.30;;;6.90;99.90;;;;;;5042110;28;20468;-80
2023/01/12 08:49:03;;;;;;;0.23;0.23;;;6.90;99.90;;;;;;5047180;28;20433;-79
2023/01/12 08:51:29;;;;;;;0.20;0.20;;;6.90;99.90;;;;;;5048485;28;20548;-80
2023/01/12 08:53:54;;;;;;;0.30;0.30;;;6.90;99.90;;;;;;5048519;28;20544;-79
2023/01/12 08:56:20;;;;;;;0.30;0.30;;;7.00;99.90;;;;;;5048047;28;20201;-80
2023/01/12 08:58:46;;;;;;;0.30;0.30;;;7.00;99.90;;;;;;5049008;28;20209;-80
2023/01/12 09:01:14;;;;;;;0.20;0.20;;;7.00;99.90;;;;;;5037847;28;21591;-80
2023/01/12 09:03:40;;;;;;;0.30;0.30;;;7.00;99.90;;;;;;5024732;28;20240;-82
2023/01/12 09:06:16;;;;;;;0.30;0.30;;;7.00;99.90;;;;;;5045359;28;20504;-83
2023/01/12 09:08:41;;;;;;;0.20;0.20;;;7.10;99.90;;;;;;5043932;28;20447;-82
2023/01/12 09:11:08;;;;;;;0.30;0.30;;;7.10;99.90;;;;;;5025889;28;20445;-82
2023/01/12 09:13:34;;;;;;;0.30;0.30;;;7.10;99.90;;;;;;5041588;28;20210;-82
2023/01/12 09:16:04;;;;;;;0.27;0.27;;;7.10;99.90;;;;;;5026155;28;20992;-82
2023/01/12 09:18:30;;;;;;;0.23;0.23;;;7.10;99.90;;;;;;5040621;28;20182;-83
2023/01/12 09:21:01;;;;;;;0.30;0.30;;;7.10;99.90;;;;;;5021436;28;20471;-83
2023/01/12 09:23:26;;;;;;;0.20;0.20;;;7.10;99.90;;;;;;5016240;28;20787;-81
2023/01/12 09:25:52;;;;;;;0.30;0.30;;;7.10;99.90;;;;;;5035018;28;20453;-82
2023/01/12 09:28:17;;;;;;;0.30;0.30;;;7.10;99.90;;;;;;5042529;28;20187;-82
2023/01/12 09:30:43;;;;;;;0.30;0.30;;;7.10;99.90;;;;;;5026577;28;20269;-82
2023/01/12 09:33:08;;;;;;;0.20;0.20;;;7.10;99.90;;;;;;5038099;28;20194;-82
2023/01/12 09:35:34;;;;;;;0.30;0.30;;;7.20;99.90;;;;;;5040673;28;20202;-82
2023/01/12 09:37:59;;;;;;;0.23;0.23;;;7.20;99.90;;;;;;5020954;28;20195;-82
2023/01/12 09:40:25;;;;;;;0.30;0.30;;;7.20;99.90;;;;;;5050452;28;20183;-82
2023/01/12 09:48:22;;;;;;;0.20;0.20;;;7.20;99.90;;;;;;5046918;28;20523;-79
2023/01/12 09:50:58;;;;;;;0.20;0.20;;;7.20;99.90;;;;;;5048676;28;20460;-79
2023/01/12 09:53:31;;;;;;;0.20;0.20;;;7.30;99.90;;;;;;5037575;28;20536;-79
2023/01/12 09:56:02;;;;;;;0.30;0.30;;;7.30;99.90;;;;;;5048389;28;20983;-79
2023/01/12 09:58:42;;;;;;;0.30;0.30;;;7.40;99.90;;;;;;5045258;28;20473;-80
2023/01/12 10:01:14;;;;;;;0.20;0.20;;;7.50;99.90;;;;;;5040554;28;20467;-79
2023/01/12 10:03:41;;;;;;;0.20;0.20;;;7.40;99.90;;;;;;5052884;28;20429;-79
2023/01/12 10:06:13;;;;;;;0.30;0.30;;;7.40;99.90;;;;;;5044527;28;20482;-79
2023/01/12 10:08:53;;;;;;;0.20;0.20;;;7.50;99.90;;;;;;5043707;28;20449;-80
2023/01/12 10:11:50;;;;;;;0.30;0.30;;;7.40;99.90;;;;;;5032552;28;20472;-79
2023/01/12 10:14:58;;;;;;;0.20;0.20;;;7.50;99.90;;;;;;5043238;28;20488;-79
2023/01/12 10:17:31;;;;;;;0.20;0.20;;;7.60;99.90;;;;;;5050978;28;20467;-79
2023/01/12 10:20:03;;;;;;;0.20;0.20;;;7.60;99.90;;;;;;5048804;28;20448;-80
2023/01/12 10:22:46;;;;;;;0.20;0.20;;;7.70;99.90;;;;;;5041683;28;20524;-79
2023/01/12 10:25:14;;;;;;;0.20;0.20;;;7.70;99.90;;;;;;5045355;28;20445;-79
2023/01/12 10:27:43;;;;;;;0.30;0.30;;;7.80;99.90;;;;;;5048709;28;20441;-78
2023/01/12 10:30:16;;;;;;;0.20;0.20;;;7.80;99.90;;;;;;5043798;28;20449;-79
2023/01/12 10:32:42;;;;;;;0.20;0.20;;;7.90;99.90;;;;;;5042880;28;20494;-78
2023/01/12 10:35:17;;;;;;;0.20;0.20;;;8.00;99.90;;;;;;5044695;28;20485;-79
2023/01/12 10:37:51;;;;;;;0.20;0.20;;;8.00;99.90;;;;;;5041908;28;20547;-79
2023/01/12 10:40:22;;;;;;;0.20;0.20;;;8.00;99.90;;;;;;5047379;28;20445;-79
2023/01/12 10:45:40;;;;;;;0.20;0.20;;;8.10;99.90;;;;;;5038052;28;20471;-80
2023/01/12 10:48:18;;;;;;;0.20;0.20;;;8.10;99.90;;;;;;5051021;28;21011;-79
2023/01/12 10:50:59;;;;;;;0.20;0.20;;;8.20;99.90;;;;;;5044109;28;20460;-79
2023/01/12 10:53:46;;;;;;;0.20;0.20;;;8.20;99.90;;;;;;5050932;28;21276;-79
2023/01/12 10:56:30;;;;;;;0.20;0.20;;;8.20;99.90;;;;;;5027146;28;20456;-80
2023/01/12 10:59:02;;;;;;;0.20;0.20;;;8.30;99.90;;;;;;5034775;28;22183;-79
2023/01/12 11:02:11;;;;;;;0.20;0.20;;;8.30;99.90;;;;;;5039964;28;20498;-79
2023/01/12 11:04:41;;;;;;;0.20;0.20;;;8.30;99.90;;;;;;5049603;28;20576;-80
2023/01/12 11:07:13;;;;;;;0.20;0.20;;;8.30;99.90;;;;;;5047661;28;20433;-79
2023/01/12 11:09:40;;;;;;;0.20;0.20;;;8.40;99.90;;;;;;5046369;28;20449;-80
2023/01/12 11:12:24;;;;;;;0.20;0.20;;;8.50;99.90;;;;;;5029506;28;20487;-79
2023/01/12 11:15:08;;;;;;;0.20;0.20;;;8.50;99.90;;;;;;5044852;28;20484;-79
2023/01/12 11:17:35;;;;;;;0.20;0.20;;;8.50;99.90;;;;;;5027817;28;20436;-80
2023/01/12 11:20:05;;;;;;;0.20;0.20;;;8.60;99.90;;;;;;5027305;28;20503;-78
2023/01/12 11:22:36;;;;;;;0.20;0.20;;;8.60;99.90;;;;;;5050379;28;20429;-78
2023/01/12 11:25:19;;;;;;;0.20;0.20;;;8.60;99.90;;;;;;5023237;28;20469;-79
2023/01/12 11:27:50;;;;;;;0.20;0.20;;;8.60;99.90;;;;;;5048131;28;20473;-79
2023/01/12 11:30:22;;;;;;;0.20;0.20;;;8.70;99.90;;;;;;5045214;28;20539;-79
2023/01/12 11:33:07;;;;;;;0.20;0.20;;;8.70;99.90;;;;;;5032474;28;20786;-79
2023/01/12 11:36:00;;;;;;;0.20;0.20;;;8.70;99.90;;;;;;5047244;28;20503;-78
2023/01/12 11:38:28;;;;;;;0.20;0.20;;;8.80;99.90;;;;;;5043712;28;20524;-78
2023/01/12 11:40:57;;;;;;;0.20;0.20;;;8.80;99.90;;;;;;5043932;28;20451;-77
2023/01/12 11:43:49;;;;;;;0.20;0.20;;;8.80;99.90;;;;;;5042227;28;20444;-77
2023/01/12 11:46:39;;;;;;;0.20;0.20;;;8.70;99.90;;;;;;5045757;28;20627;-78
2023/01/12 11:49:13;;;;;;;0.20;0.20;;;8.70;99.90;;;;;;5029689;28;20449;-77
2023/01/12 11:51:39;;;;;;;0.20;0.20;;;8.80;99.90;;;;;;5024732;28;20831;-78
2023/01/12 11:54:09;;;;;;;0.20;0.20;;;8.70;99.90;;;;;;5030464;28;20488;-79
2023/01/12 11:57:03;;;;;;;0.20;0.20;;;8.80;99.90;;;;;;5025464;28;20457;-78
2023/01/12 11:59:32;;;;;;;0.20;0.20;;;8.80;99.90;;;;;;5047003;28;20437;-79
2023/01/12 12:02:09;;;;;;;0.20;0.20;;;8.80;99.90;;;;;;5047081;28;20498;-79
2023/01/12 12:04:37;;;;;;;0.20;0.20;;;8.90;99.90;;;;;;5037540;28;21082;-78
2023/01/12 12:07:24;;;;;;;0.20;0.20;;;8.80;99.90;;;;;;5049328;28;20540;-78
2023/01/12 12:10:13;;;;;;;0.20;0.20;;;8.90;99.90;;;;;;5018247;28;20532;-79
2023/01/12 12:12:47;;;;;;;0.20;0.20;;;8.90;99.90;;;;;;5043631;28;20429;-78
2023/01/12 12:15:26;;;;;;;0.20;0.20;;;8.90;99.90;;;;;;5027950;28;20480;-78
2023/01/12 12:18:37;;;;;;;0.20;0.20;;;8.90;99.90;;;;;;5046992;28;20456;-78
2023/01/12 12:21:18;;;;;;;0.20;0.20;;;8.90;99.90;;;;;;4962412;28;20496;-78
2023/01/12 12:24:00;;;;;;;0.20;0.20;;;8.90;99.90;;;;;;4944095;29;20454;-78
2023/01/12 12:26:33;;;;;;;0.20;0.20;;;8.90;99.90;;;;;;5008469;28;20437;-78
2023/01/12 12:29:02;;;;;;;0.20;0.20;;;8.90;99.90;;;;;;5028153;28;20483;-78
2023/01/12 12:31:39;;;;;;;0.20;0.20;;;8.90;99.90;;;;;;5044272;28;20433;-78
2023/01/12 12:34:32;;;;;;;0.20;0.20;;;8.90;99.90;;;;;;5045601;28;20484;-78
2023/01/12 12:37:03;;;;;;;0.20;0.20;;;8.80;99.90;;;;;;5043914;28;20521;-78
2023/01/12 12:39:52;;;;;;;0.20;0.20;;;8.70;99.90;;;;;;5042129;28;20484;-77
2023/01/12 12:45:52;;;;;;;0.20;0.20;;;8.70;99.90;;;;;;5037428;28;20835;-78
2023/01/12 12:48:39;;;;;;;0.20;0.20;;;8.60;99.90;;;;;;5046091;28;20441;-77
2023/01/12 12:51:07;;;;;;;0.30;0.30;;;8.60;99.90;;;;;;5046890;28;20453;-77
2023/01/12 12:53:43;;;;;;;0.30;0.30;;;8.50;99.90;;;;;;5040629;28;20444;-76
2023/01/12 12:56:14;;;;;;;0.20;0.20;;;8.40;99.90;;;;;;5045598;28;20444;-77
2023/01/12 12:58:53;;;;;;;0.23;0.23;;;8.40;99.90;;;;;;5046371;28;20473;-79
2023/01/12 13:01:18;;;;;;;0.20;0.20;;;8.30;99.90;;;;;;5025256;28;21338;-76
2023/01/12 13:03:52;;;;;;;0.30;0.30;;;8.30;99.90;;;;;;5047866;28;20518;-76
2023/01/12 13:06:33;;;;;;;0.23;0.23;;;8.20;99.90;;;;;;5049436;28;20249;-76
2023/01/12 13:09:08;;;;;;;0.20;0.20;;;8.20;99.90;;;;;;5030241;28;20754;-76
2023/01/12 13:11:49;;;;;;;0.20;0.20;;;8.20;99.90;;;;;;5054393;28;20421;-75
2023/01/12 13:14:25;;;;;;;0.30;0.30;;;8.30;99.90;;;;;;5034724;28;22790;-76
2023/01/12 13:16:53;;;;;;;0.20;0.20;;;8.20;99.90;;;;;;5027829;28;20483;-76
2023/01/12 13:19:43;;;;;;;0.30;0.30;;;8.20;99.90;;;;;;5047327;28;20449;-76
2023/01/12 13:22:27;;;;;;;0.20;0.20;;;8.20;99.90;;;;;;5039603;28;20452;-76
2023/01/12 13:24:55;;;;;;;0.20;0.20;;;8.20;99.90;;;;;;5053025;28;20430;-77
2023/01/12 13:28:04;;;;;;;0.20;0.20;;;8.20;99.90;;;;;;5052723;28;20487;-77
2023/01/12 13:30:29;;;;;;;0.20;0.20;;;8.20;99.90;;;;;;5025888;28;20468;-77
2023/01/12 13:33:31;;;;;;;0.30;0.30;;;8.20;99.90;;;;;;5052252;28;20449;-77
2023/01/12 13:36:04;;;;;;;0.20;0.20;;;8.20;99.90;;;;;;4966001;28;20196;-77
2023/01/12 13:39:00;;;;;;;0.30;0.30;;;8.20;99.90;;;;;;5047982;28;20507;-76
2023/01/12 13:44:38;;;;;;;0.20;0.20;;;8.10;99.90;;;;;;5048256;28;20457;-77
2023/01/12 13:47:19;;;;;;;0.20;0.20;;;8.10;99.90;;;;;;5043580;28;20448;-76
2023/01/12 13:49:49;;;;;;;0.30;0.30;;;8.10;99.90;;;;;;5045425;28;20814;-76
2023/01/12 13:52:20;;;;;;;0.20;0.20;;;8.10;99.90;;;;;;5050664;28;20464;-77
2023/01/12 13:54:50;;;;;;;0.20;0.20;;;8.10;99.90;;;;;;5036330;28;21027;-76
2023/01/12 13:57:23;;;;;;;0.20;0.20;;;8.10;99.90;;;;;;5049521;28;20520;-76
2023/01/12 13:59:59;;;;;;;0.20;0.20;;;8.10;99.90;;;;;;5043693;28;20440;-76
2023/01/12 14:02:28;;;;;;;0.30;0.30;;;8.10;99.90;;;;;;5046721;28;20531;-77
2023/01/12 14:05:11;;;;;;;0.20;0.20;;;8.10;99.90;;;;;;5047631;28;21255;-76